createdAt,value
2023-01-26T00:04:00.146Z,5.82
2023-01-26T00:09:02.075Z,5.60
2023-01-26T00:14:03.957Z,6.15
2023-01-26T00:19:05.868Z,6.05
2023-01-26T00:24:07.980Z,6.00
2023-01-26T00:29:09.829Z,6.70
2023-01-26T00:34:11.716Z,7.57
2023-01-26T00:39:17.010Z,7.20
2023-01-26T00:49:20.782Z,5.60
2023-01-26T00:54:22.556Z,6.00
2023-01-26T00:59:30.591Z,6.30
2023-01-26T01:04:32.992Z,6.43
2023-01-26T01:09:35.605Z,5.55
2023-01-26T01:14:37.463Z,6.65
2023-01-26T01:19:39.751Z,6.30
2023-01-26T01:24:41.734Z,6.32
2023-01-26T01:34:49.526Z,4.88
2023-01-26T01:39:51.960Z,5.72
2023-01-26T01:45:25.466Z,5.63
2023-01-26T01:50:28.305Z,5.80
2023-01-26T01:55:30.408Z,5.68
2023-01-26T02:05:29.986Z,6.03
2023-01-26T02:10:33.028Z,5.93
2023-01-26T02:15:35.185Z,5.70
2023-01-26T02:20:45.319Z,7.03
2023-01-26T02:25:54.193Z,6.22
2023-01-26T02:30:56.944Z,6.82
2023-01-26T02:35:59.362Z,6.72
2023-01-26T02:41:34.532Z,7.18
2023-01-26T02:46:36.597Z,6.63
2023-01-26T02:51:41.601Z,6.03
2023-01-26T02:56:43.596Z,7.22
2023-01-26T03:01:46.558Z,6.05
2023-01-26T03:06:49.087Z,6.60
2023-01-26T03:11:54.509Z,5.97
2023-01-26T03:16:56.610Z,5.97
2023-01-26T03:22:17.606Z,5.97
2023-01-26T03:27:28.564Z,5.47
2023-01-26T03:32:40.595Z,5.53
2023-01-26T03:37:46.585Z,5.85
2023-01-26T03:43:15.877Z,5.63
2023-01-26T03:48:36.459Z,6.63
2023-01-26T03:53:59.511Z,5.32
2023-01-26T03:59:10.045Z,5.70
2023-01-26T04:04:41.379Z,5.82
2023-01-26T04:09:45.288Z,5.97
2023-01-26T04:15:09.555Z,5.72
2023-01-26T04:20:30.350Z,5.22
2023-01-26T04:25:32.243Z,6.03
2023-01-26T04:30:34.526Z,5.30
2023-01-26T04:35:37.500Z,6.15
2023-01-26T04:40:42.380Z,5.65
2023-01-26T04:45:44.916Z,6.63
2023-01-26T04:50:54.023Z,5.47
2023-01-26T04:55:56.237Z,5.95
2023-01-26T05:06:43.141Z,5.32
2023-01-26T05:11:52.085Z,6.32
2023-01-26T05:42:37.239Z,6.13
2023-01-26T05:47:55.008Z,5.93
2023-01-26T05:52:59.329Z,6.35
2023-01-26T05:58:04.649Z,6.55
2023-01-26T06:03:07.965Z,5.85
2023-01-26T06:08:16.819Z,6.40
2023-01-26T06:13:42.702Z,6.65
2023-01-26T06:19:08.386Z,5.33
2023-01-26T06:24:16.335Z,7.13
2023-01-26T06:29:24.512Z,6.20
2023-01-26T06:34:35.559Z,6.50
2023-01-26T06:39:42.408Z,6.40
2023-01-26T06:44:46.554Z,7.18
2023-01-26T06:49:51.129Z,6.60
2023-01-26T06:54:56.809Z,6.20
2023-01-26T07:00:19.407Z,6.88
2023-01-26T07:05:46.963Z,5.65
2023-01-26T07:10:53.808Z,6.90
2023-01-26T07:16:02.790Z,6.70
2023-01-26T07:21:13.562Z,6.18
2023-01-26T07:26:18.628Z,6.03
2023-01-26T07:31:21.654Z,6.57
2023-01-26T07:36:35.333Z,6.60
2023-01-26T07:41:38.199Z,7.10
2023-01-26T07:47:07.080Z,7.35
2023-01-26T07:52:11.684Z,6.43
2023-01-26T07:57:17.748Z,6.50
2023-01-26T08:02:25.077Z,5.93
2023-01-26T08:07:35.148Z,6.90
2023-01-26T08:12:41.423Z,6.30
2023-01-26T08:17:54.466Z,6.90
2023-01-26T08:23:14.049Z,7.40
2023-01-26T08:28:21.264Z,6.13
2023-01-26T08:33:26.423Z,6.35
2023-01-26T08:38:36.633Z,5.95
2023-01-26T08:43:39.356Z,6.43
2023-01-26T08:48:46.402Z,5.15
2023-01-26T08:53:53.402Z,5.10
2023-01-26T08:58:56.811Z,4.93
2023-01-26T09:04:00.921Z,5.60
2023-01-26T09:09:13.195Z,5.28
2023-01-26T09:14:18.398Z,5.45
2023-01-26T09:19:24.644Z,5.40
2023-01-26T09:24:29.699Z,5.40
2023-01-26T09:29:37.934Z,4.65
2023-01-26T09:34:46.091Z,5.00
2023-01-26T09:39:50.961Z,4.68
2023-01-26T09:45:23.940Z,5.05
2023-01-26T09:50:50.074Z,4.15
2023-01-26T09:56:24.880Z,4.78
2023-01-26T10:02:09.930Z,5.38
2023-01-26T10:07:14.194Z,5.10
2023-01-26T10:12:39.942Z,5.30
2023-01-26T10:17:48.604Z,5.53
2023-01-26T10:23:02.084Z,5.75
2023-01-26T10:28:39.848Z,5.22
2023-01-26T10:33:51.251Z,5.43
2023-01-26T10:39:10.004Z,5.25
2023-01-26T10:44:31.664Z,4.90
2023-01-26T10:49:44.236Z,5.68
2023-01-26T10:55:22.272Z,4.65
2023-01-26T11:00:36.644Z,4.57
2023-01-26T11:11:16.095Z,4.32
2023-01-26T11:16:28.834Z,4.18
2023-01-26T11:21:46.191Z,3.63
2023-01-26T11:27:21.627Z,4.22
2023-01-26T11:32:41.444Z,4.35
2023-01-26T11:38:12.882Z,4.38
2023-01-26T11:43:48.057Z,4.40
2023-01-26T11:49:10.437Z,3.92
2023-01-26T11:54:48.793Z,4.28
2023-01-26T12:00:29.573Z,3.90
2023-01-26T12:05:45.951Z,4.38
2023-01-26T12:11:27.464Z,4.72
2023-01-26T12:16:40.847Z,4.45
2023-01-26T12:22:11.887Z,4.60
2023-01-26T12:27:30.302Z,4.60
2023-01-26T12:32:38.023Z,4.38
2023-01-26T12:38:08.669Z,4.70
2023-01-26T12:44:00.448Z,4.55
2023-01-26T12:49:26.772Z,4.78
2023-01-26T12:54:46.136Z,5.85
2023-01-26T12:59:52.453Z,4.70
2023-01-26T13:05:04.687Z,5.88
2023-01-26T13:15:27.648Z,4.35
2023-01-26T13:20:48.990Z,5.15
2023-01-26T13:26:20.704Z,5.93
2023-01-26T13:31:40.716Z,5.60
2023-01-26T13:36:49.437Z,5.43
2023-01-26T13:41:56.869Z,5.63
2023-01-26T13:47:21.115Z,5.65
2023-01-26T13:52:29.198Z,6.47
2023-01-26T13:57:33.538Z,5.47
2023-01-26T14:02:41.126Z,8.68
2023-01-26T14:07:46.453Z,6.25
2023-01-26T14:12:58.226Z,5.88
2023-01-26T14:18:21.488Z,5.60
2023-01-26T14:23:33.047Z,5.93
2023-01-26T14:28:45.880Z,5.55
2023-01-26T14:33:55.326Z,5.22
2023-01-26T14:39:01.150Z,6.05
2023-01-26T14:44:09.898Z,5.65
2023-01-26T14:49:50.273Z,5.40
2023-01-26T14:55:00.224Z,4.35
2023-01-26T15:00:15.573Z,4.38
2023-01-26T15:05:25.901Z,5.43
2023-01-26T15:10:40.980Z,4.85
2023-01-26T15:15:56.020Z,4.78
2023-01-26T15:21:26.129Z,5.47
2023-01-26T15:26:40.283Z,5.00
2023-01-26T15:31:45.412Z,4.93
2023-01-26T15:36:54.910Z,4.50
2023-01-26T15:42:27.853Z,4.55
2023-01-26T15:47:34.266Z,4.60
2023-01-26T15:52:50.852Z,5.05
2023-01-26T15:57:58.466Z,4.10
2023-01-26T16:03:24.753Z,3.90
2023-01-26T16:08:35.355Z,3.88
2023-01-26T16:14:02.071Z,4.22
2023-01-26T16:19:11.885Z,3.38
2023-01-26T16:24:26.137Z,3.55
2023-01-26T16:29:29.448Z,2.72
2023-01-26T16:34:33.798Z,3.08
2023-01-26T16:39:51.582Z,2.90
2023-01-26T16:44:54.842Z,2.78
2023-01-26T16:50:02.421Z,3.80
2023-01-26T16:55:16.119Z,3.25
2023-01-26T17:00:29.471Z,2.75
2023-01-26T17:05:47.631Z,2.55
2023-01-26T17:11:04.283Z,2.95
2023-01-26T17:16:15.945Z,2.85
2023-01-26T17:21:22.363Z,2.93
2023-01-26T17:26:31.926Z,2.72
2023-01-26T17:31:35.179Z,2.80
2023-01-26T17:36:37.574Z,2.92
2023-01-26T17:41:40.689Z,3.22
2023-01-26T17:46:46.351Z,4.25
2023-01-26T17:51:52.597Z,5.82
2023-01-26T17:56:59.179Z,5.00
2023-01-26T18:02:06.886Z,4.43
2023-01-26T18:07:11.303Z,3.72
2023-01-26T18:12:14.354Z,6.13
2023-01-26T18:17:37.759Z,6.13
2023-01-26T18:22:41.503Z,5.80
2023-01-26T18:27:59.102Z,6.13
2023-01-26T18:33:04.432Z,4.90
2023-01-26T18:38:07.446Z,4.13
2023-01-26T18:43:15.534Z,3.97
2023-01-26T18:48:20.390Z,3.78
2023-01-26T18:53:29.716Z,4.05
2023-01-26T18:58:34.885Z,3.95
2023-01-26T19:03:41.765Z,4.32
2023-01-26T19:09:00.917Z,8.88
2023-01-26T19:14:18.025Z,7.80
2023-01-26T19:24:43.103Z,12.63
2023-01-26T19:29:47.598Z,11.15
2023-01-26T19:34:57.504Z,13.20
2023-01-26T19:40:00.706Z,11.57
2023-01-26T19:45:05.880Z,8.73
2023-01-26T19:50:11.168Z,7.95
2023-01-26T19:55:19.036Z,12.65
2023-01-26T20:00:23.809Z,9.35
2023-01-26T20:05:34.721Z,9.95
2023-01-26T20:11:04.261Z,9.02
2023-01-26T20:16:14.196Z,8.40
2023-01-26T20:21:18.673Z,7.90
2023-01-26T20:26:22.926Z,7.72
2023-01-26T20:31:31.565Z,8.13
2023-01-26T20:36:38.707Z,7.50
2023-01-26T20:41:42.845Z,7.05
2023-01-26T20:46:51.029Z,7.10
2023-01-26T20:51:59.546Z,7.28
2023-01-26T20:57:07.583Z,6.63
2023-01-26T21:02:17.565Z,6.28
2023-01-26T21:07:23.693Z,6.88
2023-01-26T21:12:25.750Z,8.77
2023-01-26T21:17:30.557Z,8.75
2023-01-26T21:22:38.583Z,8.18
2023-01-26T21:27:45.295Z,8.75
2023-01-26T21:32:54.888Z,9.10
2023-01-26T21:38:10.964Z,8.30
2023-01-26T21:43:23.872Z,8.50
2023-01-26T21:48:42.750Z,8.70
2023-01-26T21:54:03.049Z,7.70
2023-01-26T21:59:19.935Z,8.77
2023-01-26T22:04:28.005Z,7.97
2023-01-26T22:15:01.596Z,7.25
2023-01-26T22:20:13.525Z,7.45
2023-01-26T22:25:20.703Z,7.47
2023-01-26T22:30:22.592Z,8.70
2023-01-26T22:35:28.236Z,9.25
2023-01-26T22:40:34.279Z,9.25
2023-01-26T22:45:46.889Z,8.40
2023-01-26T22:50:52.070Z,8.27
2023-01-26T22:55:55.729Z,9.07
2023-01-26T23:01:14.475Z,8.52
2023-01-26T23:06:23.652Z,9.35
2023-01-26T23:11:29.015Z,8.35
2023-01-26T23:16:31.567Z,8.30
2023-01-26T23:21:34.777Z,8.65
2023-01-26T23:26:43.394Z,11.25
2023-01-26T23:31:48.283Z,8.25
2023-01-26T23:36:50.986Z,8.82
2023-01-26T23:41:53.890Z,9.15
2023-01-26T23:46:57.741Z,8.57
2023-01-26T23:52:07.512Z,9.43
2023-01-26T23:57:12.626Z,10.80
